Time;durP1;ratioP1;P1;durP2;ratioP2;P2;SDS_P1;SDS_P2;PMS_P1;PMS_P2;Temp;Humidity;BMP_temperature;BMP_pressure;BME280_temperature;BME280_humidity;BME280_pressure;Samples;Min_cycle;Max_cycle;Signal;HPM_P1;HPM_P2
2022/01/01 00:01:59;;;;;;;51.70;9.25;;;;;;;;;;5015508;28;20453;-77
2022/01/01 00:04:25;;;;;;;47.63;9.30;;;;;;;;;;5018624;28;20177;-77
2022/01/01 00:06:51;;;;;;;58.00;10.20;;;;;;;;;;4997733;28;20778;-76
2022/01/01 00:09:16;;;;;;;50.80;7.93;;;11.10;49.10;;;;;;4995582;28;20460;-76
2022/01/01 00:11:42;;;;;;;50.83;11.67;;;11.10;49.60;;;;;;4995652;28;20568;-76
2022/01/01 00:14:07;;;;;;;30.13;9.40;;;11.00;49.70;;;;;;4996138;28;20179;-76
2022/01/01 00:16:33;;;;;;;57.13;11.17;;;;;;;;;;4995087;28;20649;-76
2022/01/01 00:18:59;;;;;;;51.80;10.70;;;;;;;;;;4994618;28;20202;-77
2022/01/01 00:21:25;;;;;;;32.92;6.18;;;;;;;;;;4995221;28;20893;-77
2022/01/01 00:23:51;;;;;;;52.40;7.38;;;;;;;;;;4994786;28;20175;-77
2022/01/01 00:26:17;;;;;;;26.25;6.50;;;;;;;;;;4994619;28;20218;-76
2022/01/01 00:28:44;;;;;;;44.43;7.80;;;;;;;;;;4995161;28;20190;-76
2022/01/01 00:31:10;;;;;;;47.70;8.07;;;11.00;49.80;;;;;;4994302;28;20454;-76
2022/01/01 00:33:36;;;;;;;38.63;6.77;;;;;;;;;;4993744;28;20242;-77
2022/01/01 00:36:02;;;;;;;105.25;9.02;;;;;;;;;;4994080;28;20266;-77
2022/01/01 00:38:28;;;;;;;55.10;9.52;;;;;;;;;;4994423;28;20193;-77
2022/01/01 00:40:54;;;;;;;51.67;7.40;;;;;;;;;;4992383;28;20593;-77
2022/01/01 00:43:20;;;;;;;28.50;7.55;;;;;;;;;;4993912;28;20944;-77
2022/01/01 00:45:46;;;;;;;53.15;7.70;;;;;;;;;;4992125;28;20284;-76
2022/01/01 00:48:13;;;;;;;56.08;7.95;;;;;;;;;;4993035;28;20645;-77
2022/01/01 00:50:39;;;;;;;43.40;8.10;;;11.50;48.20;;;;;;4987870;28;20209;-76
2022/01/01 00:53:05;;;;;;;36.50;6.53;;;11.50;49.10;;;;;;4993974;28;20272;-75
2022/01/01 00:55:31;;;;;;;36.73;6.67;;;;;;;;;;4994267;28;20749;-76
2022/01/01 00:57:57;;;;;;;50.25;7.60;;;;;;;;;;4993689;28;20177;-79
2022/01/01 01:00:23;;;;;;;55.30;6.78;;;;;;;;;;4993673;28;20206;-77
2022/01/01 01:02:49;;;;;;;46.38;8.55;;;;;;;;;;4993533;28;20544;-77
2022/01/01 01:05:15;;;;;;;33.60;7.57;;;;;;;;;;4993789;28;20201;-76
2022/01/01 01:07:41;;;;;;;47.67;5.30;;;;;;;;;;4992153;28;20425;-76
2022/01/01 01:10:07;;;;;;;39.28;4.85;;;;;;;;;;4993054;28;20890;-76
2022/01/01 01:12:40;;;;;;;62.08;5.82;;;;;;;;;;4991609;28;20188;-76
2022/01/01 01:15:06;;;;;;;45.25;7.30;;;10.80;48.70;;;;;;4993525;28;20773;-76
2022/01/01 01:17:32;;;;;;;41.53;7.65;;;11.00;49.30;;;;;;4993250;28;20187;-77
2022/01/01 01:19:58;;;;;;;46.47;6.50;;;11.00;50.10;;;;;;4993016;28;20185;-78
2022/01/01 01:22:26;;;;;;;42.50;6.13;;;;;;;;;;4992645;28;20881;-75
2022/01/01 01:24:53;;;;;;;33.55;7.50;;;11.00;48.90;;;;;;4993114;28;20202;-75
2022/01/01 01:27:19;;;;;;;42.22;7.25;;;;;;;;;;4993157;28;20182;-75
2022/01/01 01:29:46;;;;;;;46.80;5.37;;;;;;;;;;4993280;28;20178;-74
2022/01/01 01:32:12;;;;;;;44.95;5.13;;;;;;;;;;4992235;28;20823;-75
2022/01/01 01:34:38;;;;;;;42.80;5.53;;;;;;;;;;4992576;28;20202;-74
2022/01/01 01:37:04;;;;;;;32.75;5.50;;;;;;;;;;4992746;28;20558;-74
2022/01/01 01:39:30;;;;;;;29.00;3.60;;;;;;;;;;4993022;28;20185;-74
2022/01/01 01:41:56;;;;;;;27.38;4.45;;;;;;;;;;4992747;28;20434;-74
2022/01/01 01:44:33;;;;;;;28.33;3.77;;;10.90;48.60;;;;;;4992482;28;20185;-74
2022/01/01 01:47:02;;;;;;;33.97;4.28;;;;;;;;;;4992862;28;20504;-74
2022/01/01 01:49:29;;;;;;;34.30;4.72;;;;;;;;;;4991711;28;20277;-75
2022/01/01 01:51:55;;;;;;;33.30;3.55;;;10.70;48.60;;;;;;4992770;28;20264;-74
2022/01/01 01:54:21;;;;;;;43.33;5.88;;;10.40;48.70;;;;;;4991863;28;20220;-74
2022/01/01 01:56:47;;;;;;;37.03;3.75;;;10.70;48.60;;;;;;4992464;28;20189;-74
2022/01/01 01:59:14;;;;;;;51.70;5.13;;;;;;;;;;4993023;28;20213;-74
2022/01/01 02:01:40;;;;;;;45.92;4.43;;;;;;;;;;4992391;28;20421;-74
2022/01/01 02:04:06;;;;;;;43.58;4.25;;;;;;;;;;4991403;28;20180;-74
2022/01/01 02:06:33;;;;;;;36.40;5.18;;;;;;;;;;4991618;28;20206;-74
2022/01/01 02:08:59;;;;;;;30.30;3.58;;;10.80;48.60;;;;;;4992583;28;20667;-74
2022/01/01 02:11:25;;;;;;;39.53;4.55;;;10.50;49.00;;;;;;4992369;28;20685;-74
2022/01/01 02:18:50;;;;;;;43.25;4.45;;;;;;;;;;4993903;28;20182;-74
2022/01/01 02:21:18;;;;;;;31.58;3.40;;;10.70;49.00;;;;;;4994233;28;20200;-74
2022/01/01 02:23:46;;;;;;;33.33;2.78;;;10.50;49.70;;;;;;4994076;28;20571;-74
2022/01/01 02:26:15;;;;;;;59.70;3.85;;;;;;;;;;4993461;28;20205;-74
2022/01/01 02:28:41;;;;;;;32.60;3.15;;;;;;;;;;4994933;28;20201;-74
2022/01/01 02:31:07;;;;;;;27.35;3.15;;;;;;;;;;4995171;28;20214;-74
2022/01/01 02:33:33;;;;;;;36.05;3.65;;;;;;;;;;4995254;28;20254;-74
2022/01/01 02:35:59;;;;;;;59.45;4.18;;;;;;;;;;4995276;28;20202;-74
2022/01/01 02:38:25;;;;;;;27.33;2.65;;;;;;;;;;4996038;28;20197;-74
2022/01/01 02:40:51;;;;;;;31.35;2.97;;;;;;;;;;4996201;28;20239;-74
2022/01/01 02:43:18;;;;;;;19.17;2.57;;;;;;;;;;4995811;28;20650;-75
2022/01/01 02:45:44;;;;;;;51.35;4.60;;;10.20;48.60;;;;;;4994853;28;20512;-74
2022/01/01 02:48:10;;;;;;;28.77;3.37;;;;;;;;;;4992905;28;20182;-74
2022/01/01 02:50:36;;;;;;;21.98;3.30;;;;;;;;;;4995446;28;20210;-74
2022/01/01 02:53:02;;;;;;;31.50;4.30;;;;;;;;;;4995355;28;20189;-75
2022/01/01 02:55:28;;;;;;;40.20;3.78;;;;;;;;;;4994447;28;20468;-75
2022/01/01 02:57:54;;;;;;;34.65;4.53;;;;;;;;;;4994999;28;20209;-74
2022/01/01 03:00:20;;;;;;;29.58;3.10;;;;;;;;;;4994128;28;20193;-74
2022/01/01 03:02:46;;;;;;;35.10;3.70;;;;;;;;;;4995196;28;20190;-75
2022/01/01 03:05:12;;;;;;;37.75;3.00;;;;;;;;;;4996161;28;20212;-75
2022/01/01 03:07:38;;;;;;;39.37;4.23;;;10.20;48.20;;;;;;4995647;28;20237;-75
2022/01/01 03:10:05;;;;;;;32.72;3.42;;;10.00;49.00;;;;;;4995381;28;20433;-74
2022/01/01 03:12:31;;;;;;;35.78;4.40;;;;;;;;;;4996533;28;20203;-74
2022/01/01 03:14:56;;;;;;;37.42;4.22;;;;;;;;;;4999608;28;20298;-75
2022/01/01 03:17:22;;;;;;;31.07;2.97;;;;;;;;;;4998902;28;20661;-75
2022/01/01 03:19:48;;;;;;;27.30;2.50;;;;;;;;;;4998570;28;20421;-75
2022/01/01 03:22:14;;;;;;;19.07;2.80;;;;;;;;;;4999738;28;20413;-75
2022/01/01 03:24:40;;;;;;;32.75;3.38;;;;;;;;;;4999298;28;20469;-75
2022/01/01 03:27:06;;;;;;;37.30;3.78;;;;;;;;;;4999693;28;20178;-75
2022/01/01 03:29:33;;;;;;;29.87;3.03;;;;;;;;;;5000401;28;20560;-75
2022/01/01 03:31:59;;;;;;;31.15;3.28;;;;;;;;;;5000085;28;20468;-75
2022/01/01 03:34:25;;;;;;;23.42;2.30;;;;;;;;;;4998990;28;20186;-74
2022/01/01 03:36:51;;;;;;;37.03;4.35;;;;;;;;;;4997855;28;20787;-74
2022/01/01 03:39:17;;;;;;;41.42;3.88;;;;;;;;;;4996774;28;20166;-74
2022/01/01 03:41:43;;;;;;;47.70;5.28;;;;;;;;;;4996891;28;20225;-74
2022/01/01 03:44:09;;;;;;;33.93;3.10;;;;;;;;;;4997439;28;20657;-74
2022/01/01 03:46:35;;;;;;;32.97;4.45;;;;;;;;;;4997054;28;20445;-75
2022/01/01 03:49:01;;;;;;;21.70;4.10;;;;;;;;;;4997233;28;20236;-75
2022/01/01 03:51:27;;;;;;;25.70;3.37;;;;;;;;;;4996696;28;20465;-74
2022/01/01 03:53:53;;;;;;;55.27;4.67;;;;;;;;;;4996971;28;20425;-74
2022/01/01 03:56:19;;;;;;;37.80;3.63;;;;;;;;;;4997296;28;20429;-75
2022/01/01 03:58:45;;;;;;;42.63;4.10;;;9.20;57.10;;;;;;4997137;28;20405;-74
2022/01/01 04:01:10;;;;;;;29.97;2.80;;;9.40;54.90;;;;;;4995913;28;20425;-75
2022/01/01 04:03:36;;;;;;;42.23;3.37;;;;;;;;;;4994648;28;20673;-75
2022/01/01 04:06:02;;;;;;;65.65;4.47;;;9.60;53.20;;;;;;4994051;28;20624;-75
2022/01/01 04:08:30;;;;;;;33.33;3.13;;;;;;;;;;4994791;28;20244;-75
2022/01/01 04:10:56;;;;;;;34.67;4.55;;;9.90;51.70;;;;;;4994488;28;20609;-75
2022/01/01 04:13:22;;;;;;;27.03;3.17;;;;;;;;;;4994242;28;20177;-75
2022/01/01 04:15:49;;;;;;;49.33;3.92;;;;;;;;;;4994071;28;20654;-75
2022/01/01 04:18:25;;;;;;;25.48;2.47;;;9.90;50.60;;;;;;4994283;28;20174;-75
2022/01/01 04:20:50;;;;;;;35.67;4.50;;;9.70;50.70;;;;;;4993176;28;20181;-75
2022/01/01 04:23:16;;;;;;;43.13;3.00;;;;;;;;;;4993760;28;20192;-75
2022/01/01 04:25:47;;;;;;;50.50;3.60;;;;;;;;;;4993634;28;20213;-75
2022/01/01 04:28:13;;;;;;;58.85;4.22;;;9.60;51.70;;;;;;4994266;28;20177;-75
2022/01/01 04:30:39;;;;;;;50.70;3.20;;;9.50;51.00;;;;;;4993867;28;20205;-75
2022/01/01 04:33:05;;;;;;;29.73;3.20;;;;;;;;;;4993901;28;20182;-75
2022/01/01 04:35:31;;;;;;;32.63;3.60;;;;;;;;;;4994164;28;20568;-75
2022/01/01 04:37:57;;;;;;;53.03;3.60;;;;;;;;;;4993417;28;20552;-75
2022/01/01 04:40:23;;;;;;;30.03;2.97;;;;;;;;;;4994283;28;20180;-75
2022/01/01 04:42:49;;;;;;;36.15;3.47;;;;;;;;;;4993953;28;20409;-75
2022/01/01 04:45:15;;;;;;;32.20;2.90;;;;;;;;;;4990220;28;20348;-75
2022/01/01 04:47:41;;;;;;;21.70;2.72;;;;;;;;;;4984964;28;20848;-75
2022/01/01 04:50:07;;;;;;;33.73;2.90;;;;;;;;;;4993922;28;20265;-75
2022/01/01 04:52:33;;;;;;;43.67;2.95;;;;;;;;;;4993696;28;20988;-75
2022/01/01 04:54:59;;;;;;;33.30;3.15;;;;;;;;;;4992529;28;20252;-75
2022/01/01 04:57:30;;;;;;;36.38;2.58;;;;;;;;;;4992467;28;20174;-75
2022/01/01 04:59:57;;;;;;;36.67;3.95;;;9.40;51.40;;;;;;4993743;28;20194;-75
2022/01/01 05:02:25;;;;;;;29.38;2.42;;;;;;;;;;4993473;28;20189;-75
2022/01/01 05:04:50;;;;;;;42.25;3.75;;;9.20;53.10;;;;;;4993631;28;20221;-75
2022/01/01 05:07:16;;;;;;;37.67;2.70;;;9.10;54.00;;;;;;4992683;28;20213;-75
2022/01/01 05:09:41;;;;;;;44.93;3.30;;;9.40;53.60;;;;;;4993183;28;20193;-75
2022/01/01 05:12:08;;;;;;;31.67;2.83;;;;;;;;;;4993539;28;20197;-75
2022/01/01 05:14:35;;;;;;;20.85;2.88;;;;;;;;;;4993525;28;20198;-75
2022/01/01 05:17:01;;;;;;;35.80;3.17;;;;;;;;;;4993063;28;20174;-75
2022/01/01 05:19:26;;;;;;;33.67;3.95;;;9.50;51.80;;;;;;4992987;28;20174;-75
2022/01/01 05:21:55;;;;;;;34.23;3.37;;;9.40;52.20;;;;;;4993297;28;20664;-75
2022/01/01 05:24:21;;;;;;;35.85;3.28;;;9.30;53.30;;;;;;4993179;28;20196;-75
2022/01/01 05:26:47;;;;;;;46.00;3.03;;;9.10;55.10;;;;;;4992877;28;20265;-75
2022/01/01 05:29:13;;;;;;;34.70;2.43;;;9.00;55.50;;;;;;4992092;28;20264;-75
2022/01/01 05:31:39;;;;;;;41.00;3.60;;;9.20;53.70;;;;;;4992933;28;20464;-75
2022/01/01 05:34:05;;;;;;;19.73;2.23;;;9.30;52.90;;;;;;4992946;28;20209;-75
2022/01/01 05:36:30;;;;;;;44.30;3.67;;;9.40;51.70;;;;;;4991834;28;20483;-75
2022/01/01 05:38:56;;;;;;;43.07;4.00;;;9.10;51.70;;;;;;4992605;28;20178;-75
2022/01/01 05:41:22;;;;;;;45.83;2.83;;;;;;;;;;4992313;28;20923;-74
2022/01/01 05:43:49;;;;;;;43.67;3.85;;;9.10;52.20;;;;;;4992785;28;20182;-74
2022/01/01 05:46:15;;;;;;;92.45;4.13;;;;;;;;;;4992552;28;20218;-75
2022/01/01 05:48:41;;;;;;;41.63;3.05;;;8.80;55.10;;;;;;4992332;28;20672;-74
2022/01/01 05:51:07;;;;;;;41.47;3.10;;;;;;;;;;4983823;28;20200;-75
2022/01/01 05:53:33;;;;;;;33.08;2.83;;;;;;;;;;4992694;28;20637;-74
2022/01/01 05:55:59;;;;;;;33.63;4.13;;;8.70;53.70;;;;;;4992354;28;20210;-75
2022/01/01 05:58:25;;;;;;;27.57;3.00;;;;;;;;;;4992347;28;20717;-74
2022/01/01 06:00:51;;;;;;;29.42;3.00;;;;;;;;;;4992029;28;20186;-74
2022/01/01 06:03:18;;;;;;;25.63;2.50;;;;;;;;;;4992779;28;20240;-74
2022/01/01 06:05:44;;;;;;;43.70;3.95;;;;;;;;;;4991127;28;20256;-74
2022/01/01 06:08:10;;;;;;;32.63;2.83;;;;;;;;;;4992346;28;20213;-75
2022/01/01 06:10:36;;;;;;;32.80;2.95;;;8.40;53.40;;;;;;4992204;28;20213;-75
2022/01/01 06:13:05;;;;;;;32.47;3.07;;;8.50;52.50;;;;;;4992193;28;20261;-74
2022/01/01 06:15:31;;;;;;;28.75;2.33;;;;;;;;;;4992356;28;20190;-75
2022/01/01 06:17:57;;;;;;;26.20;3.67;;;;;;;;;;4992184;28;20170;-74
2022/01/01 06:20:23;;;;;;;24.07;2.83;;;;;;;;;;4992453;28;20662;-75
2022/01/01 06:22:49;;;;;;;50.10;4.00;;;;;;;;;;4991644;28;21173;-75
2022/01/01 06:25:15;;;;;;;18.80;2.95;;;;;;;;;;4992274;28;20214;-75
2022/01/01 06:27:42;;;;;;;32.78;3.22;;;;;;;;;;4991787;28;20186;-75
2022/01/01 06:30:08;;;;;;;37.90;3.08;;;;;;;;;;4992062;28;20244;-75
2022/01/01 06:32:34;;;;;;;39.95;3.58;;;;;;;;;;4991935;28;20196;-75
2022/01/01 06:35:00;;;;;;;38.15;3.55;;;;;;;;;;4991926;28;20198;-75
2022/01/01 06:37:26;;;;;;;31.42;2.92;;;8.70;51.40;;;;;;4991763;28;20185;-75
2022/01/01 06:39:52;;;;;;;33.57;3.03;;;;;;;;;;4992010;28;20177;-75
2022/01/01 06:42:18;;;;;;;36.22;3.17;;;;;;;;;;4990587;28;20220;-75
2022/01/01 06:44:44;;;;;;;36.85;3.42;;;;;;;;;;4992044;28;20190;-75
2022/01/01 06:47:10;;;;;;;37.40;2.92;;;;;;;;;;5005013;28;20180;-75
2022/01/01 06:49:36;;;;;;;28.40;2.78;;;;;;;;;;5014590;28;20233;-75
2022/01/01 06:52:03;;;;;;;34.77;2.90;;;8.50;51.40;;;;;;5014537;28;20228;-75
2022/01/01 06:54:29;;;;;;;25.23;2.33;;;8.50;52.10;;;;;;5014504;28;20403;-75
2022/01/01 06:56:54;;;;;;;21.63;2.27;;;8.40;52.30;;;;;;4997644;28;20272;-75
2022/01/01 06:59:21;;;;;;;28.40;2.33;;;;;;;;;;4997140;28;20180;-75
2022/01/01 07:01:47;;;;;;;34.90;2.38;;;;;;;;;;4995511;28;20196;-74
2022/01/01 07:04:13;;;;;;;32.30;2.50;;;;;;;;;;4996130;28;20174;-75
2022/01/01 07:06:38;;;;;;;28.83;2.73;;;;;;;;;;4996313;28;20797;-75
2022/01/01 07:09:06;;;;;;;24.05;2.47;;;;;;;;;;4997909;28;20552;-75
2022/01/01 07:11:31;;;;;;;20.00;1.75;;;9.00;55.70;;;;;;4997349;28;20615;-75
2022/01/01 07:13:57;;;;;;;29.27;2.57;;;;;;;;;;4994766;28;20213;-74
2022/01/01 07:16:23;;;;;;;23.87;2.40;;;;;;;;;;4996705;28;20198;-74
2022/01/01 07:18:49;;;;;;;34.28;2.25;;;9.00;58.30;;;;;;4996858;28;20540;-75
2022/01/01 07:21:15;;;;;;;30.53;2.37;;;;;;;;;;4996732;28;20664;-75
2022/01/01 07:23:42;;;;;;;33.05;2.50;;;;;;;;;;4996227;28;20182;-75
2022/01/01 07:26:09;;;;;;;83.95;5.30;;;9.30;54.60;;;;;;4996568;28;20233;-74
2022/01/01 07:28:34;;;;;;;35.83;2.50;;;9.20;54.00;;;;;;4996797;28;20634;-75
2022/01/01 07:31:00;;;;;;;31.50;3.30;;;9.30;53.40;;;;;;4996742;28;20190;-78
2022/01/01 07:33:26;;;;;;;21.47;2.03;;;9.20;53.20;;;;;;4998648;28;20209;-80
2022/01/01 07:35:53;;;;;;;30.23;2.47;;;;;;;;;;4999941;28;20646;-80
2022/01/01 07:38:19;;;;;;;35.85;2.10;;;;;;;;;;4997540;28;20174;-80
2022/01/01 07:40:45;;;;;;;31.50;2.15;;;;;;;;;;5001396;28;20236;-81
2022/01/01 07:43:15;;;;;;;40.07;3.40;;;;;;;;;;5000209;28;20181;-79
2022/01/01 07:45:42;;;;;;;37.13;2.50;;;;;;;;;;4999438;28;20452;-78
2022/01/01 07:48:08;;;;;;;37.65;3.10;;;;;;;;;;5000300;28;20187;-78
2022/01/01 07:50:34;;;;;;;40.65;3.00;;;;;;;;;;4994085;28;20220;-78
2022/01/01 07:53:00;;;;;;;50.25;2.90;;;;;;;;;;4999477;28;20172;-79
2022/01/01 07:55:26;;;;;;;28.17;2.05;;;;;;;;;;5000222;28;20193;-79
2022/01/01 07:57:52;;;;;;;36.20;2.38;;;;;;;;;;5000695;28;20178;-79
2022/01/01 08:00:18;;;;;;;28.43;2.53;;;;;;;;;;4998471;28;20559;-81
2022/01/01 08:02:46;;;;;;;38.22;2.72;;;9.60;51.00;;;;;;4998169;28;20475;-82
2022/01/01 08:05:13;;;;;;;32.75;2.92;;;9.40;51.90;;;;;;4997557;28;20206;-81
2022/01/01 08:07:39;;;;;;;34.90;2.60;;;9.30;52.50;;;;;;4998985;28;20519;-80
2022/01/01 08:10:06;;;;;;;29.40;2.55;;;;;;;;;;4999611;28;20186;-80
2022/01/01 08:12:32;;;;;;;31.08;2.45;;;;;;;;;;4999573;28;20181;-80
2022/01/01 08:14:58;;;;;;;36.30;2.72;;;;;;;;;;5001229;28;20194;-79
2022/01/01 08:17:25;;;;;;;39.28;4.05;;;;;;;;;;4996079;28;20178;-79
2022/01/01 08:19:51;;;;;;;33.67;3.47;;;7.40;66.20;;;;;;4998246;28;20179;-80
2022/01/01 08:22:17;;;;;;;27.30;2.90;;;7.50;66.60;;;;;;4995456;28;20269;-78
2022/01/01 08:24:43;;;;;;;37.60;2.87;;;;;;;;;;4995366;28;20834;-79
2022/01/01 08:27:09;;;;;;;25.05;2.17;;;7.70;64.40;;;;;;4996212;28;20496;-80
2022/01/01 08:29:35;;;;;;;31.80;2.87;;;;;;;;;;4995271;28;20246;-80
2022/01/01 08:32:01;;;;;;;38.33;2.50;;;;;;;;;;4995381;28;20249;-78
2022/01/01 08:34:27;;;;;;;26.37;2.00;;;;;;;;;;4995406;28;20174;-81
2022/01/01 08:36:53;;;;;;;36.40;3.50;;;;;;;;;;4995317;28;20841;-77
2022/01/01 08:39:19;;;;;;;50.25;3.65;;;;;;;;;;4995480;28;20174;-78
2022/01/01 08:41:46;;;;;;;27.48;2.80;;;9.50;52.60;;;;;;4995403;28;20201;-79
2022/01/01 08:44:12;;;;;;;17.10;1.98;;;9.50;52.30;;;;;;4995529;28;20178;-78
2022/01/01 08:46:39;;;;;;;39.28;3.58;;;;;;;;;;4993274;28;20598;-78
2022/01/01 08:49:05;;;;;;;33.35;2.60;;;;;;;;;;4995470;28;20182;-87
2022/01/01 08:51:33;;;;;;;21.50;2.78;;;9.50;52.90;;;;;;4991538;28;20202;-79
2022/01/01 08:54:00;;;;;;;41.95;3.38;;;;;;;;;;4994721;28;20230;-79
2022/01/01 08:56:26;;;;;;;18.95;1.92;;;;;;;;;;4994521;28;20209;-79
2022/01/01 08:58:52;;;;;;;32.80;2.45;;;;;;;;;;4991954;28;20180;-79
2022/01/01 09:01:18;;;;;;;34.92;3.38;;;;;;;;;;4994477;28;20607;-79
2022/01/01 09:03:44;;;;;;;37.25;3.55;;;;;;;;;;4994707;28;20233;-78
2022/01/01 09:06:10;;;;;;;82.22;5.80;;;8.90;57.80;;;;;;4993800;28;20195;-79
2022/01/01 09:08:41;;;;;;;33.28;2.53;;;8.80;56.50;;;;;;4990205;28;20181;-78
2022/01/01 09:11:08;;;;;;;31.35;2.83;;;;;;;;;;4992842;28;20201;-79
2022/01/01 09:13:34;;;;;;;33.22;2.90;;;;;;;;;;4978688;28;20186;-80
2022/01/01 09:16:00;;;;;;;39.55;2.58;;;8.40;59.20;;;;;;4993451;28;20193;-79
2022/01/01 09:18:26;;;;;;;49.83;3.47;;;8.50;59.60;;;;;;4993903;28;20241;-78
2022/01/01 09:20:52;;;;;;;40.30;3.67;;;;;;;;;;4993905;28;20178;-81
2022/01/01 09:23:19;;;;;;;29.52;2.70;;;9.30;55.40;;;;;;4989776;28;20434;-78
2022/01/01 09:25:45;;;;;;;36.00;2.45;;;;;;;;;;4992214;28;20252;-78
2022/01/01 09:28:11;;;;;;;62.88;3.05;;;;;;;;;;4984800;28;20183;-78
2022/01/01 09:30:37;;;;;;;64.50;3.33;;;9.40;55.10;;;;;;4973921;28;20646;-77
2022/01/01 09:33:03;;;;;;;33.13;3.10;;;;;;;;;;4985761;28;20193;-78
2022/01/01 09:35:29;;;;;;;31.73;2.75;;;;;;;;;;4993857;28;20210;-79
2022/01/01 09:37:55;;;;;;;36.03;2.85;;;;;;;;;;4994007;28;20174;-79
2022/01/01 09:40:21;;;;;;;25.77;2.30;;;;;;;;;;4994492;28;20646;-79
2022/01/01 09:42:47;;;;;;;43.70;3.25;;;;;;;;;;4992003;28;20488;-81
2022/01/01 09:45:14;;;;;;;49.80;3.05;;;11.20;45.30;;;;;;4993311;28;20204;-77
2022/01/01 09:47:40;;;;;;;50.00;3.05;;;11.20;45.30;;;;;;4985881;28;20326;-77
2022/01/01 09:50:07;;;;;;;31.98;2.25;;;11.20;46.20;;;;;;4986201;28;20185;-76
2022/01/01 09:52:33;;;;;;;52.20;2.88;;;;;;;;;;4993836;28;20603;-77
2022/01/01 09:54:59;;;;;;;31.65;2.70;;;;;;;;;;4994237;28;20291;-78
2022/01/01 09:57:26;;;;;;;23.17;2.45;;;;;;;;;;4994265;28;20171;-78
2022/01/01 09:59:52;;;;;;;30.38;2.42;;;;;;;;;;4994114;28;20182;-78
2022/01/01 10:02:18;;;;;;;29.13;2.10;;;;;;;;;;4994710;28;20180;-79
2022/01/01 10:04:45;;;;;;;34.22;2.55;;;;;;;;;;4993926;28;20962;-79
2022/01/01 10:07:12;;;;;;;34.80;2.65;;;11.80;44.10;;;;;;4993491;28;20180;-78
2022/01/01 10:09:38;;;;;;;36.20;2.78;;;;;;;;;;4995253;28;20189;-77
2022/01/01 10:12:06;;;;;;;22.20;2.20;;;11.90;44.70;;;;;;4992269;28;20206;-78
2022/01/01 10:14:36;;;;;;;42.00;3.33;;;12.10;44.10;;;;;;4994004;28;20272;-78
2022/01/01 10:17:12;;;;;;;19.92;2.35;;;12.40;42.50;;;;;;4993394;28;20240;-75
2022/01/01 10:19:38;;;;;;;46.47;3.20;;;;;;;;;;4992630;28;20208;-76
2022/01/01 10:22:06;;;;;;;26.13;2.92;;;;;;;;;;4993848;28;20478;-77
2022/01/01 10:30:02;;;;;;;37.77;3.40;;;12.00;44.90;;;;;;4993561;28;20669;-76
2022/01/01 10:32:27;;;;;;;28.97;2.40;;;12.10;45.10;;;;;;4993545;28;20452;-76
2022/01/01 10:34:53;;;;;;;35.40;2.83;;;12.10;44.20;;;;;;4992796;28;20436;-76
2022/01/01 10:37:24;;;;;;;23.37;2.73;;;;;;;;;;4992210;28;20170;-76
2022/01/01 10:39:52;;;;;;;35.88;3.08;;;12.50;42.80;;;;;;4992403;28;20656;-76
2022/01/01 10:42:18;;;;;;;33.42;2.80;;;12.70;42.50;;;;;;4992221;28;20184;-76
2022/01/01 10:44:48;;;;;;;36.10;2.93;;;13.00;41.40;;;;;;4992139;28;20205;-76
2022/01/01 10:47:18;;;;;;;27.83;2.30;;;13.40;40.20;;;;;;4991866;28;20429;-76
2022/01/01 10:52:22;;;;;;;36.80;2.90;;;13.70;38.70;;;;;;4992160;28;20476;-76
2022/01/01 10:54:52;;;;;;;40.70;3.33;;;13.50;38.30;;;;;;4992017;28;20537;-78
2022/01/01 10:57:27;;;;;;;26.43;2.70;;;;;;;;;;4991902;28;20460;-78
2022/01/01 11:00:18;;;;;;;39.03;2.90;;;13.10;39.90;;;;;;4992455;28;20412;-78
2022/01/01 11:02:47;;;;;;;35.67;3.00;;;13.50;38.40;;;;;;4992107;28;20469;-79
2022/01/01 11:05:13;;;;;;;31.80;2.50;;;;;;;;;;4992011;28;20432;-78
2022/01/01 11:07:49;;;;;;;30.27;2.97;;;13.80;38.60;;;;;;4991758;28;20410;-78
2022/01/01 11:10:15;;;;;;;36.60;2.60;;;;;;;;;;4991957;28;20416;-78
2022/01/01 11:12:42;;;;;;;22.93;2.70;;;14.00;37.60;;;;;;4992026;28;20408;-78
2022/01/01 11:15:09;;;;;;;23.97;2.20;;;14.00;38.60;;;;;;4991832;28;20953;-79
2022/01/01 11:17:35;;;;;;;33.10;3.13;;;;;;;;;;4990422;28;20415;-78
2022/01/01 11:20:03;;;;;;;30.70;2.77;;;;;;;;;;4990792;28;20417;-78
2022/01/01 11:22:29;;;;;;;20.67;2.43;;;14.20;36.50;;;;;;4991925;28;20422;-79
2022/01/01 11:24:55;;;;;;;61.70;3.90;;;;;;;;;;4987860;28;20457;-78
2022/01/01 11:27:22;;;;;;;56.67;3.50;;;;;;;;;;4985310;28;20432;-78
2022/01/01 11:29:52;;;;;;;46.73;3.30;;;;;;;;;;4990621;28;20408;-77
2022/01/01 11:32:20;;;;;;;30.90;2.80;;;;;;;;;;5008066;28;20458;-78
2022/01/01 11:34:49;;;;;;;36.53;3.40;;;14.40;37.10;;;;;;4988266;28;20621;-78
2022/01/01 11:37:15;;;;;;;39.80;3.17;;;14.00;38.00;;;;;;4984905;28;20424;-76
2022/01/01 11:39:42;;;;;;;41.77;3.63;;;14.30;37.60;;;;;;5015152;28;20447;-76
2022/01/01 11:42:11;;;;;;;41.67;3.67;;;14.90;36.30;;;;;;5001071;28;20417;-77
2022/01/01 11:44:40;;;;;;;28.07;3.17;;;15.60;36.20;;;;;;5013582;28;20458;-78
2022/01/01 11:47:16;;;;;;;34.50;3.33;;;;;;;;;;5014843;28;20777;-78
2022/01/01 11:49:41;;;;;;;37.83;4.23;;;16.20;33.60;;;;;;5013810;28;20475;-78
2022/01/01 11:52:07;;;;;;;34.13;3.23;;;16.60;32.40;;;;;;5013649;28;20843;-78
2022/01/01 11:54:35;;;;;;;30.97;3.07;;;;;;;;;;4997836;28;20221;-78
2022/01/01 11:57:04;;;;;;;88.47;5.53;;;;;;;;;;4994264;28;20505;-79
2022/01/01 11:59:39;;;;;;;38.20;3.30;;;;;;;;;;4994085;28;20467;-78
2022/01/01 12:02:18;;;;;;;21.43;3.03;;;19.20;27.90;;;;;;4998297;28;20514;-79
2022/01/01 12:04:45;;;;;;;26.27;2.83;;;;;;;;;;4999365;28;20445;-80
2022/01/01 12:07:16;;;;;;;37.83;3.40;;;18.80;29.00;;;;;;5001331;28;20450;-80
2022/01/01 12:10:07;;;;;;;29.43;3.43;;;18.60;29.50;;;;;;5001306;28;20418;-81
2022/01/01 12:12:39;;;;;;;40.57;4.07;;;;;;;;;;5001032;28;20962;-81
2022/01/01 12:15:20;;;;;;;32.27;3.90;;;18.00;30.80;;;;;;5001600;28;20464;-79
2022/01/01 12:18:13;;;;;;;26.97;2.90;;;18.30;30.00;;;;;;5000224;28;20431;-80
2022/01/01 12:20:50;;;;;;;35.23;3.53;;;18.00;29.40;;;;;;4999738;28;20931;-81
2022/01/01 12:23:23;;;;;;;27.57;3.67;;;18.00;29.60;;;;;;5001094;28;20459;-80
2022/01/01 12:25:51;;;;;;;31.90;3.27;;;18.30;30.30;;;;;;5000673;28;20834;-80
2022/01/01 12:28:19;;;;;;;46.90;3.90;;;18.70;29.20;;;;;;4999059;28;20490;-81
2022/01/01 12:30:51;;;;;;;40.40;4.57;;;18.40;30.10;;;;;;4998790;28;20470;-80
2022/01/01 12:33:48;;;;;;;37.43;4.20;;;18.70;29.70;;;;;;5002720;28;20516;-80
2022/01/01 12:36:18;;;;;;;72.33;5.13;;;;;;;;;;4968449;28;20470;-77
2022/01/01 12:38:52;;;;;;;30.03;3.93;;;;;;;;;;4977464;28;20445;-77
2022/01/01 12:41:22;;;;;;;39.73;3.83;;;;;;;;;;4976566;28;20417;-78
2022/01/01 12:43:48;;;;;;;32.50;4.13;;;18.40;28.80;;;;;;4976386;28;20505;-78
2022/01/01 12:46:16;;;;;;;42.77;4.10;;;18.30;29.60;;;;;;4976166;28;20442;-78
2022/01/01 12:48:42;;;;;;;29.90;3.50;;;;;;;;;;4976601;28;20429;-78
2022/01/01 12:51:10;;;;;;;18.50;2.77;;;;;;;;;;4976957;28;20468;-78
2022/01/01 12:53:41;;;;;;;43.93;3.83;;;18.50;30.80;;;;;;4976615;28;20426;-78
2022/01/01 12:56:07;;;;;;;85.70;6.47;;;;;;;;;;4976616;28;20437;-78
2022/01/01 12:58:43;;;;;;;38.07;4.30;;;;;;;;;;4960119;28;20508;-78
2022/01/01 13:01:20;;;;;;;36.93;4.20;;;;;;;;;;4976350;28;20417;-78
2022/01/01 13:03:52;;;;;;;37.30;5.00;;;18.60;29.10;;;;;;4978203;28;20414;-80
2022/01/01 13:06:28;;;;;;;37.17;4.73;;;18.10;30.10;;;;;;4978682;28;20566;-80
2022/01/01 13:09:01;;;;;;;32.53;3.13;;;;;;;;;;4979041;28;20947;-80
2022/01/01 13:11:28;;;;;;;53.03;4.90;;;17.50;32.80;;;;;;4978831;28;20470;-80
2022/01/01 13:13:53;;;;;;;29.63;3.73;;;17.10;31.90;;;;;;4981195;28;20508;-80
2022/01/01 13:16:20;;;;;;;29.33;4.27;;;17.30;33.40;;;;;;4981789;28;20466;-81
2022/01/01 13:18:45;;;;;;;25.73;2.60;;;17.30;34.10;;;;;;4994798;28;20416;-80
2022/01/01 13:21:12;;;;;;;26.70;3.57;;;;;;;;;;4994915;28;20420;-79
2022/01/01 13:23:38;;;;;;;43.03;3.53;;;;;;;;;;4998857;28;20182;-80
2022/01/01 13:26:04;;;;;;;68.37;4.17;;;16.00;35.40;;;;;;4981137;28;20458;-81
2022/01/01 13:28:32;;;;;;;44.83;3.30;;;;;;;;;;4981197;28;20430;-80
2022/01/01 13:30:59;;;;;;;23.10;2.60;;;16.40;37.60;;;;;;4983808;28;20467;-79
2022/01/01 13:33:26;;;;;;;32.93;2.73;;;;;;;;;;4981237;28;20487;-80
2022/01/01 13:35:54;;;;;;;41.13;3.10;;;;;;;;;;4983655;28;20467;-77
2022/01/01 13:38:20;;;;;;;23.50;3.30;;;;;;;;;;4998126;28;20490;-78
2022/01/01 13:40:50;;;;;;;28.93;2.97;;;;;;;;;;5014353;28;20445;-78
2022/01/01 13:43:17;;;;;;;30.27;2.53;;;19.10;30.40;;;;;;4998906;28;20435;-78
2022/01/01 13:45:43;;;;;;;25.63;2.53;;;19.10;30.00;;;;;;4990872;28;20982;-79
2022/01/01 13:48:09;;;;;;;17.23;2.50;;;;;;;;;;4978597;28;20418;-78
2022/01/01 13:50:53;;;;;;;37.43;3.17;;;19.00;29.80;;;;;;4990568;28;20198;-78
2022/01/01 13:53:19;;;;;;;15.43;2.17;;;18.80;30.20;;;;;;4992903;28;20446;-79
2022/01/01 13:55:55;;;;;;;34.43;2.73;;;;;;;;;;4981066;28;20438;-78
2022/01/01 13:58:21;;;;;;;42.27;3.23;;;19.30;29.60;;;;;;4978326;28;20563;-79